createdAt,value
2023-01-25T00:04:38.932Z,12.70
2023-01-25T00:14:41.085Z,12.03
2023-01-25T00:24:44.212Z,12.00
2023-01-25T00:34:47.763Z,11.43
2023-01-25T00:44:49.964Z,10.63
2023-01-25T00:54:52.062Z,14.10
2023-01-25T01:04:56.550Z,13.80
2023-01-25T01:14:59.901Z,12.47
2023-01-25T01:25:02.200Z,12.23
2023-01-25T01:35:04.531Z,13.13
2023-01-25T01:45:44.012Z,13.73
2023-01-25T01:55:49.694Z,14.43
2023-01-25T02:06:01.509Z,13.30
2023-01-25T02:16:05.024Z,13.67
2023-01-25T02:26:07.477Z,13.77
2023-01-25T02:36:10.235Z,13.80
2023-01-25T02:46:28.902Z,14.47
2023-01-25T02:56:32.378Z,13.60
2023-01-25T03:06:35.954Z,14.20
2023-01-25T03:16:38.450Z,13.93
2023-01-25T03:27:01.503Z,13.97
2023-01-25T03:37:31.218Z,13.50
2023-01-25T03:47:34.361Z,13.30
2023-01-25T03:57:37.819Z,13.93
2023-01-25T04:07:42.208Z,13.50
2023-01-25T04:17:45.468Z,15.07
2023-01-25T04:27:55.601Z,14.20
2023-01-25T04:37:59.375Z,13.47
2023-01-25T04:48:10.770Z,13.57
2023-01-25T04:58:19.509Z,13.60
2023-01-25T05:08:22.935Z,14.93
2023-01-25T05:18:42.576Z,14.97
2023-01-25T05:28:52.580Z,12.73
2023-01-25T05:39:01.677Z,12.60
2023-01-25T05:49:06.975Z,11.83
2023-01-25T05:59:11.184Z,10.03
2023-01-25T06:09:13.905Z,10.27
2023-01-25T06:19:17.148Z,11.13
2023-01-25T06:29:38.243Z,11.77
2023-01-25T06:39:40.357Z,11.80
2023-01-25T06:49:42.589Z,11.00
2023-01-25T06:59:44.779Z,11.83
2023-01-25T07:09:46.921Z,10.67
2023-01-25T07:19:49.181Z,11.20
2023-01-25T07:29:51.282Z,11.30
2023-01-25T07:39:53.435Z,11.30
2023-01-25T07:49:55.559Z,11.10
2023-01-25T07:59:57.660Z,11.77
2023-01-25T08:09:59.789Z,11.70
2023-01-25T08:20:02.191Z,11.80
2023-01-25T08:30:04.783Z,13.47
2023-01-25T08:40:07.873Z,13.40
2023-01-25T08:50:11.094Z,14.10
2023-01-25T09:00:14.285Z,14.10
2023-01-25T09:10:16.734Z,13.77
2023-01-25T09:20:18.953Z,13.30
2023-01-25T09:30:23.386Z,13.83
2023-01-25T09:40:34.340Z,14.87
2023-01-25T09:50:51.621Z,15.00
2023-01-25T10:01:05.927Z,14.47
2023-01-25T10:11:29.101Z,12.60
2023-01-25T10:21:35.445Z,14.53
2023-01-25T10:31:44.884Z,15.47
2023-01-25T10:41:51.521Z,15.07
2023-01-25T10:51:53.722Z,15.63
2023-01-25T11:01:57.326Z,16.80
2023-01-25T11:12:03.620Z,14.37
2023-01-25T11:22:19.800Z,49.47
2023-01-25T11:32:22.787Z,15.67
2023-01-25T11:42:32.484Z,15.10
2023-01-25T11:52:52.946Z,16.37
2023-01-25T12:03:08.080Z,18.03
2023-01-25T12:13:30.219Z,14.73
2023-01-25T12:23:40.058Z,20.33
2023-01-25T12:33:46.589Z,20.73
2023-01-25T12:43:52.670Z,15.40
2023-01-25T12:53:55.336Z,14.80
2023-01-25T13:04:03.524Z,11.93
2023-01-25T13:14:36.081Z,13.17
2023-01-25T13:25:03.715Z,15.17
2023-01-25T13:35:28.523Z,14.33
2023-01-25T13:45:32.925Z,13.50
2023-01-25T13:55:40.806Z,11.03
2023-01-25T14:05:50.072Z,13.13
2023-01-25T14:16:10.659Z,19.00
2023-01-25T14:26:26.481Z,19.10
2023-01-25T14:36:31.370Z,13.60
2023-01-25T14:46:35.577Z,16.67
2023-01-25T14:56:46.737Z,18.37
2023-01-25T15:06:54.312Z,14.00
2023-01-25T15:16:56.845Z,16.50
2023-01-25T15:26:59.160Z,20.20
2023-01-25T15:37:03.506Z,18.37
2023-01-25T15:47:05.783Z,19.77
2023-01-25T15:57:23.979Z,20.97
2023-01-25T16:07:28.873Z,21.70
2023-01-25T16:17:31.055Z,18.80
2023-01-25T16:27:36.028Z,22.87
2023-01-25T16:37:38.365Z,22.60
2023-01-25T16:47:40.498Z,24.33
2023-01-25T16:57:43.778Z,22.43
2023-01-25T17:07:53.199Z,23.13
2023-01-25T17:17:55.431Z,23.83
2023-01-25T17:27:57.763Z,23.60
2023-01-25T17:37:59.953Z,22.90
2023-01-25T17:48:02.324Z,22.93
2023-01-25T17:58:05.452Z,23.57
2023-01-25T18:08:07.731Z,28.90
2023-01-25T18:18:10.366Z,22.90
2023-01-25T18:28:13.562Z,20.53
2023-01-25T18:38:17.182Z,21.83
2023-01-25T18:48:30.104Z,21.37
2023-01-25T18:58:33.319Z,23.67
2023-01-25T19:08:39.513Z,25.03
2023-01-25T19:18:48.366Z,26.33
2023-01-25T19:28:51.372Z,24.17
2023-01-25T19:38:53.903Z,25.07
2023-01-25T19:48:56.639Z,25.37
2023-01-25T19:58:59.157Z,22.17
2023-01-25T20:09:02.679Z,30.63
2023-01-25T20:19:04.878Z,23.47
2023-01-25T20:29:07.718Z,23.17
2023-01-25T20:39:12.630Z,23.10
2023-01-25T20:49:17.014Z,18.37
2023-01-25T20:59:19.312Z,21.27
2023-01-25T21:09:26.122Z,21.60
2023-01-25T21:19:28.299Z,19.90
2023-01-25T21:29:30.390Z,20.90
2023-01-25T21:39:32.581Z,24.23
2023-01-25T21:49:55.728Z,20.37
2023-01-25T21:59:59.113Z,24.03
2023-01-25T22:10:02.273Z,23.70
2023-01-25T22:20:04.687Z,27.20
2023-01-25T22:30:10.656Z,24.77
2023-01-25T22:40:13.461Z,25.83
2023-01-25T22:50:16.084Z,24.53
2023-01-25T23:00:18.578Z,25.17
2023-01-25T23:10:20.685Z,22.50
2023-01-25T23:20:23.900Z,22.77
2023-01-25T23:30:27.049Z,23.57
2023-01-25T23:40:29.356Z,23.40
2023-01-25T23:50:32.463Z,25.27
